If you wish to contribute or participate in the discussions about articles you are invited to join SKYbrary as a registered user

 Actions

Alexandroupoli Airport

From SKYbrary Wiki

LGAL
Airport
ICAO: LGAL – IATA: AXD
Summary
Name Alexandroupoli Airport
Region Europe
Territory Greece GR.gif
Location Apalos, Eastern Macedonia and Thrace
Serving Alexandroupolis
Elevation 7.315 m <br />24 ft7.315 m <br />
Coordinates 40° 51' 22.68" N, 25° 57' 19.22" E
Runways
Designator Length Width Surface ROPS
7/25 2582 m8,471.129 ft <br /> 45 m147.638 ft <br /> ASP /


METAR
Observation LGAL 242350Z 02006KT 9999 FEW030 09/06 Q1030
Station Alexandroupoli Airport
Date/Time 24 October 2021 23:50:00
Wind direction 20°
Wind speed 06 kts
Lowest cloud amount few clouds
Temperature 9°C
Dew point 6°C
Humidity 81%
QNH 1030 hPa
Weather condition n/a

Alexandroupoli Airport "Dimokritos" or "Democritus" is an airport 5 nm east of Alexandroupolis in northeastern Greece.

Climatology

Warm mediterranean climate (Köppen climate classification Csa)

Maps

Terrain

Loading map...

Airport Layout

Loading map...


Accidents & Serious Incidents at or in vicinity of LGAL

None on SKYbrary